sensor_id;sensor_type;location;lat;lon;timestamp;temperature;humidity
64796;DHT22;51229;51.980;6.722;2022-11-15T00:00:14;4.50;99.90
64796;DHT22;51229;51.980;6.722;2022-11-15T00:02:58;4.50;99.90
64796;DHT22;51229;51.980;6.722;2022-11-15T00:05:42;4.50;99.90
64796;DHT22;51229;51.980;6.722;2022-11-15T00:08:32;4.50;99.90
64796;DHT22;51229;51.980;6.722;2022-11-15T00:11:16;4.60;99.90
64796;DHT22;51229;51.980;6.722;2022-11-15T00:14:00;4.60;99.90
64796;DHT22;51229;51.980;6.722;2022-11-15T00:16:46;4.70;99.90
64796;DHT22;51229;51.980;6.722;2022-11-15T00:19:30;4.60;99.90
64796;DHT22;51229;51.980;6.722;2022-11-15T00:22:14;4.60;99.90
64796;DHT22;51229;51.980;6.722;2022-11-15T00:24:58;4.70;99.90
64796;DHT22;51229;51.980;6.722;2022-11-15T00:27:42;4.70;99.90
64796;DHT22;51229;51.980;6.722;2022-11-15T00:30:26;4.70;99.90
64796;DHT22;51229;51.980;6.722;2022-11-15T00:33:11;4.70;99.90
64796;DHT22;51229;51.980;6.722;2022-11-15T00:36:07;4.70;99.90
64796;DHT22;51229;51.980;6.722;2022-11-15T00:38:52;4.70;99.90
64796;DHT22;51229;51.980;6.722;2022-11-15T00:41:36;4.80;99.90
64796;DHT22;51229;51.980;6.722;2022-11-15T00:44:20;4.70;99.90
64796;DHT22;51229;51.980;6.722;2022-11-15T00:47:04;4.70;99.90
64796;DHT22;51229;51.980;6.722;2022-11-15T00:49:48;4.70;99.90
64796;DHT22;51229;51.980;6.722;2022-11-15T00:52:32;4.70;99.90
64796;DHT22;51229;51.980;6.722;2022-11-15T00:55:18;4.80;99.90
64796;DHT22;51229;51.980;6.722;2022-11-15T00:58:02;4.80;99.90
64796;DHT22;51229;51.980;6.722;2022-11-15T01:00:47;4.80;99.90
64796;DHT22;51229;51.980;6.722;2022-11-15T01:03:33;4.80;99.90
64796;DHT22;51229;51.980;6.722;2022-11-15T01:06:18;4.80;99.90
64796;DHT22;51229;51.980;6.722;2022-11-15T01:09:02;4.90;99.90
64796;DHT22;51229;51.980;6.722;2022-11-15T01:11:46;4.90;99.90
64796;DHT22;51229;51.980;6.722;2022-11-15T01:14:31;4.90;99.90
64796;DHT22;51229;51.980;6.722;2022-11-15T01:17:15;5.00;99.90
64796;DHT22;51229;51.980;6.722;2022-11-15T01:19:59;5.00;99.90
64796;DHT22;51229;51.980;6.722;2022-11-15T01:22:43;5.00;99.90
64796;DHT22;51229;51.980;6.722;2022-11-15T01:25:27;5.00;99.90
64796;DHT22;51229;51.980;6.722;2022-11-15T01:28:12;5.00;99.90
64796;DHT22;51229;51.980;6.722;2022-11-15T01:30:58;5.00;99.90
64796;DHT22;51229;51.980;6.722;2022-11-15T01:33:43;5.10;99.90
64796;DHT22;51229;51.980;6.722;2022-11-15T01:36:28;5.10;99.90
64796;DHT22;51229;51.980;6.722;2022-11-15T01:39:12;5.10;99.90
64796;DHT22;51229;51.980;6.722;2022-11-15T01:41:56;5.10;99.90
64796;DHT22;51229;51.980;6.722;2022-11-15T01:44:51;5.10;99.90
64796;DHT22;51229;51.980;6.722;2022-11-15T01:47:40;5.20;99.90
64796;DHT22;51229;51.980;6.722;2022-11-15T01:50:30;5.20;99.90
64796;DHT22;51229;51.980;6.722;2022-11-15T01:53:16;5.30;99.90
64796;DHT22;51229;51.980;6.722;2022-11-15T01:56:03;5.30;99.90
64796;DHT22;51229;51.980;6.722;2022-11-15T01:58:49;5.30;99.90
64796;DHT22;51229;51.980;6.722;2022-11-15T02:01:35;5.30;99.90
64796;DHT22;51229;51.980;6.722;2022-11-15T02:04:25;5.40;99.90
64796;DHT22;51229;51.980;6.722;2022-11-15T02:07:13;5.40;99.90
64796;DHT22;51229;51.980;6.722;2022-11-15T02:10:03;5.40;99.90
64796;DHT22;51229;51.980;6.722;2022-11-15T02:12:49;5.40;99.90
64796;DHT22;51229;51.980;6.722;2022-11-15T02:15:40;5.40;99.90
64796;DHT22;51229;51.980;6.722;2022-11-15T02:18:29;5.40;99.90
64796;DHT22;51229;51.980;6.722;2022-11-15T02:27:38;5.50;99.90
64796;DHT22;51229;51.980;6.722;2022-11-15T02:30:29;5.50;99.90
64796;DHT22;51229;51.980;6.722;2022-11-15T02:39:30;5.60;99.90
64796;DHT22;51229;51.980;6.722;2022-11-15T02:42:21;5.60;99.90
64796;DHT22;51229;51.980;6.722;2022-11-15T02:45:29;5.60;99.90
64796;DHT22;51229;51.980;6.722;2022-11-15T02:48:15;5.70;99.90
64796;DHT22;51229;51.980;6.722;2022-11-15T02:51:00;5.70;99.90
64796;DHT22;51229;51.980;6.722;2022-11-15T02:53:45;5.80;99.90
64796;DHT22;51229;51.980;6.722;2022-11-15T02:56:29;5.80;99.90
64796;DHT22;51229;51.980;6.722;2022-11-15T03:05:44;6.00;99.90
64796;DHT22;51229;51.980;6.722;2022-11-15T03:11:47;6.10;99.90
64796;DHT22;51229;51.980;6.722;2022-11-15T03:14:37;6.10;99.90
64796;DHT22;51229;51.980;6.722;2022-11-15T03:17:30;6.10;99.90
64796;DHT22;51229;51.980;6.722;2022-11-15T03:20:17;6.20;99.90
64796;DHT22;51229;51.980;6.722;2022-11-15T03:23:07;6.20;99.90
64796;DHT22;51229;51.980;6.722;2022-11-15T03:25:53;6.20;99.90
64796;DHT22;51229;51.980;6.722;2022-11-15T03:29:01;6.30;99.90
64796;DHT22;51229;51.980;6.722;2022-11-15T03:31:51;6.30;99.90
64796;DHT22;51229;51.980;6.722;2022-11-15T03:34:46;6.30;99.90
64796;DHT22;51229;51.980;6.722;2022-11-15T03:37:38;6.30;99.90
64796;DHT22;51229;51.980;6.722;2022-11-15T03:40:42;6.40;99.90
64796;DHT22;51229;51.980;6.722;2022-11-15T03:46:46;6.40;99.90
64796;DHT22;51229;51.980;6.722;2022-11-15T03:49:34;6.40;99.90
64796;DHT22;51229;51.980;6.722;2022-11-15T03:52:20;6.40;99.90
64796;DHT22;51229;51.980;6.722;2022-11-15T03:55:07;6.40;99.90
64796;DHT22;51229;51.980;6.722;2022-11-15T03:57:54;6.40;99.90
64796;DHT22;51229;51.980;6.722;2022-11-15T04:00:40;6.50;99.90
64796;DHT22;51229;51.980;6.722;2022-11-15T04:03:25;6.50;99.90
64796;DHT22;51229;51.980;6.722;2022-11-15T04:06:09;6.50;99.90
64796;DHT22;51229;51.980;6.722;2022-11-15T04:08:53;6.50;99.90
64796;DHT22;51229;51.980;6.722;2022-11-15T04:11:37;6.50;99.90
64796;DHT22;51229;51.980;6.722;2022-11-15T04:14:21;6.50;99.90
64796;DHT22;51229;51.980;6.722;2022-11-15T04:17:05;6.60;99.90
64796;DHT22;51229;51.980;6.722;2022-11-15T04:19:49;6.70;99.90
64796;DHT22;51229;51.980;6.722;2022-11-15T04:22:53;6.70;99.90
64796;DHT22;51229;51.980;6.722;2022-11-15T04:26:00;6.80;99.90
64796;DHT22;51229;51.980;6.722;2022-11-15T04:28:45;6.80;99.90
64796;DHT22;51229;51.980;6.722;2022-11-15T04:31:48;6.80;99.90
64796;DHT22;51229;51.980;6.722;2022-11-15T04:34:32;6.90;99.90
64796;DHT22;51229;51.980;6.722;2022-11-15T04:37:16;6.90;99.90
64796;DHT22;51229;51.980;6.722;2022-11-15T04:40:00;6.90;99.90
64796;DHT22;51229;51.980;6.722;2022-11-15T04:42:45;7.10;99.90
64796;DHT22;51229;51.980;6.722;2022-11-15T04:45:29;7.00;99.90
64796;DHT22;51229;51.980;6.722;2022-11-15T04:48:14;7.20;99.90
64796;DHT22;51229;51.980;6.722;2022-11-15T04:50:58;7.10;99.90
64796;DHT22;51229;51.980;6.722;2022-11-15T04:53:42;7.00;99.90
64796;DHT22;51229;51.980;6.722;2022-11-15T04:56:26;6.90;99.90
64796;DHT22;51229;51.980;6.722;2022-11-15T04:59:10;6.90;99.90
64796;DHT22;51229;51.980;6.722;2022-11-15T05:01:54;7.00;99.90
64796;DHT22;51229;51.980;6.722;2022-11-15T05:04:38;6.80;99.90
64796;DHT22;51229;51.980;6.722;2022-11-15T05:07:23;6.90;99.90
64796;DHT22;51229;51.980;6.722;2022-11-15T05:10:07;6.90;99.90
64796;DHT22;51229;51.980;6.722;2022-11-15T05:12:51;6.80;99.90
64796;DHT22;51229;51.980;6.722;2022-11-15T05:15:35;6.70;99.90
64796;DHT22;51229;51.980;6.722;2022-11-15T05:18:19;6.70;99.90
64796;DHT22;51229;51.980;6.722;2022-11-15T05:21:05;6.70;99.90
64796;DHT22;51229;51.980;6.722;2022-11-15T05:23:49;6.80;99.90
64796;DHT22;51229;51.980;6.722;2022-11-15T05:26:34;6.70;99.90
64796;DHT22;51229;51.980;6.722;2022-11-15T05:29:18;6.80;99.90
64796;DHT22;51229;51.980;6.722;2022-11-15T05:32:05;6.60;99.90
64796;DHT22;51229;51.980;6.722;2022-11-15T05:34:50;6.60;99.90
64796;DHT22;51229;51.980;6.722;2022-11-15T05:37:34;6.80;99.90
64796;DHT22;51229;51.980;6.722;2022-11-15T05:40:18;6.70;99.90
64796;DHT22;51229;51.980;6.722;2022-11-15T05:43:04;6.70;99.90
64796;DHT22;51229;51.980;6.722;2022-11-15T05:45:48;6.80;99.90
64796;DHT22;51229;51.980;6.722;2022-11-15T05:48:34;6.90;99.90
64796;DHT22;51229;51.980;6.722;2022-11-15T05:51:21;6.90;99.90
64796;DHT22;51229;51.980;6.722;2022-11-15T05:54:06;6.80;99.90
64796;DHT22;51229;51.980;6.722;2022-11-15T05:56:51;6.80;99.90
64796;DHT22;51229;51.980;6.722;2022-11-15T05:59:36;6.90;99.90
64796;DHT22;51229;51.980;6.722;2022-11-15T06:02:20;6.90;99.90
64796;DHT22;51229;51.980;6.722;2022-11-15T06:05:04;6.90;99.90
64796;DHT22;51229;51.980;6.722;2022-11-15T06:07:48;6.90;99.90
64796;DHT22;51229;51.980;6.722;2022-11-15T06:10:32;6.90;99.90
64796;DHT22;51229;51.980;6.722;2022-11-15T06:13:17;7.10;99.90
64796;DHT22;51229;51.980;6.722;2022-11-15T06:16:01;6.90;99.90
64796;DHT22;51229;51.980;6.722;2022-11-15T06:18:46;6.90;99.90
64796;DHT22;51229;51.980;6.722;2022-11-15T06:21:30;7.00;99.90
64796;DHT22;51229;51.980;6.722;2022-11-15T06:24:14;7.00;99.90
64796;DHT22;51229;51.980;6.722;2022-11-15T06:26:58;7.00;99.90
64796;DHT22;51229;51.980;6.722;2022-11-15T06:29:43;7.10;99.90
64796;DHT22;51229;51.980;6.722;2022-11-15T06:32:28;6.90;99.90
64796;DHT22;51229;51.980;6.722;2022-11-15T06:35:14;6.90;99.90
64796;DHT22;51229;51.980;6.722;2022-11-15T06:38:03;7.10;99.90
64796;DHT22;51229;51.980;6.722;2022-11-15T06:40:48;7.00;99.90
64796;DHT22;51229;51.980;6.722;2022-11-15T06:43:33;7.10;99.90
64796;DHT22;51229;51.980;6.722;2022-11-15T06:46:17;7.20;99.90
64796;DHT22;51229;51.980;6.722;2022-11-15T06:49:01;7.20;99.90
64796;DHT22;51229;51.980;6.722;2022-11-15T06:51:45;7.20;99.90
64796;DHT22;51229;51.980;6.722;2022-11-15T06:54:29;7.20;99.90
64796;DHT22;51229;51.980;6.722;2022-11-15T06:57:13;7.10;99.90
64796;DHT22;51229;51.980;6.722;2022-11-15T06:59:57;7.10;99.90
64796;DHT22;51229;51.980;6.722;2022-11-15T07:02:42;7.10;99.90
64796;DHT22;51229;51.980;6.722;2022-11-15T07:05:26;7.30;99.90
64796;DHT22;51229;51.980;6.722;2022-11-15T07:08:10;7.10;99.90
64796;DHT22;51229;51.980;6.722;2022-11-15T07:10:58;7.20;99.90
64796;DHT22;51229;51.980;6.722;2022-11-15T07:13:43;7.20;99.90
64796;DHT22;51229;51.980;6.722;2022-11-15T07:16:27;7.20;99.90
64796;DHT22;51229;51.980;6.722;2022-11-15T07:19:11;7.10;99.90
64796;DHT22;51229;51.980;6.722;2022-11-15T07:21:56;7.30;99.90
64796;DHT22;51229;51.980;6.722;2022-11-15T07:24:40;7.20;99.90
64796;DHT22;51229;51.980;6.722;2022-11-15T07:27:24;7.10;99.90
64796;DHT22;51229;51.980;6.722;2022-11-15T07:30:09;7.10;99.90
64796;DHT22;51229;51.980;6.722;2022-11-15T07:32:58;7.10;99.90
64796;DHT22;51229;51.980;6.722;2022-11-15T07:35:43;7.20;99.90
64796;DHT22;51229;51.980;6.722;2022-11-15T07:38:30;7.30;99.90
64796;DHT22;51229;51.980;6.722;2022-11-15T07:41:16;7.30;99.90
64796;DHT22;51229;51.980;6.722;2022-11-15T07:44:00;7.10;99.90
64796;DHT22;51229;51.980;6.722;2022-11-15T07:46:45;7.20;99.90
64796;DHT22;51229;51.980;6.722;2022-11-15T07:49:29;7.30;99.90
64796;DHT22;51229;51.980;6.722;2022-11-15T07:52:14;7.30;99.90
64796;DHT22;51229;51.980;6.722;2022-11-15T07:54:58;7.30;99.90
64796;DHT22;51229;51.980;6.722;2022-11-15T07:57:42;7.40;99.90
64796;DHT22;51229;51.980;6.722;2022-11-15T08:00:26;7.10;99.90
64796;DHT22;51229;51.980;6.722;2022-11-15T08:03:12;7.10;99.90
64796;DHT22;51229;51.980;6.722;2022-11-15T08:05:57;7.30;99.90
64796;DHT22;51229;51.980;6.722;2022-11-15T08:08:41;7.30;99.90
64796;DHT22;51229;51.980;6.722;2022-11-15T08:11:25;7.40;99.90
64796;DHT22;51229;51.980;6.722;2022-11-15T08:14:09;7.30;99.90
64796;DHT22;51229;51.980;6.722;2022-11-15T08:16:54;7.30;99.90
64796;DHT22;51229;51.980;6.722;2022-11-15T08:19:39;7.40;99.90
64796;DHT22;51229;51.980;6.722;2022-11-15T08:22:23;7.30;99.90
64796;DHT22;51229;51.980;6.722;2022-11-15T08:25:07;7.30;99.90
64796;DHT22;51229;51.980;6.722;2022-11-15T08:27:56;7.40;99.90
64796;DHT22;51229;51.980;6.722;2022-11-15T08:30:42;7.30;99.90
64796;DHT22;51229;51.980;6.722;2022-11-15T08:33:27;7.50;99.90
64796;DHT22;51229;51.980;6.722;2022-11-15T08:36:14;7.30;99.90
64796;DHT22;51229;51.980;6.722;2022-11-15T08:38:58;7.30;99.90
64796;DHT22;51229;51.980;6.722;2022-11-15T08:41:43;7.30;99.90
64796;DHT22;51229;51.980;6.722;2022-11-15T08:44:28;7.40;99.90
64796;DHT22;51229;51.980;6.722;2022-11-15T08:47:12;7.30;99.90
64796;DHT22;51229;51.980;6.722;2022-11-15T08:49:57;7.50;99.90
64796;DHT22;51229;51.980;6.722;2022-11-15T08:52:41;7.40;99.90
64796;DHT22;51229;51.980;6.722;2022-11-15T08:55:25;7.40;99.90
64796;DHT22;51229;51.980;6.722;2022-11-15T08:58:10;7.40;99.90
64796;DHT22;51229;51.980;6.722;2022-11-15T09:00:54;7.30;99.90
64796;DHT22;51229;51.980;6.722;2022-11-15T09:03:40;7.40;99.90
64796;DHT22;51229;51.980;6.722;2022-11-15T09:06:24;7.40;99.90
64796;DHT22;51229;51.980;6.722;2022-11-15T09:09:08;7.40;99.90
64796;DHT22;51229;51.980;6.722;2022-11-15T09:11:52;7.40;99.90
64796;DHT22;51229;51.980;6.722;2022-11-15T09:14:37;7.40;99.90
64796;DHT22;51229;51.980;6.722;2022-11-15T09:17:21;7.40;99.90
64796;DHT22;51229;51.980;6.722;2022-11-15T09:20:05;7.30;99.90
64796;DHT22;51229;51.980;6.722;2022-11-15T09:22:50;7.20;99.90
64796;DHT22;51229;51.980;6.722;2022-11-15T09:25:34;7.70;99.90
64796;DHT22;51229;51.980;6.722;2022-11-15T09:28:18;7.60;99.90
64796;DHT22;51229;51.980;6.722;2022-11-15T09:31:05;7.70;99.90
64796;DHT22;51229;51.980;6.722;2022-11-15T09:33:50;7.80;99.90
64796;DHT22;51229;51.980;6.722;2022-11-15T09:36:34;7.70;99.90
64796;DHT22;51229;51.980;6.722;2022-11-15T09:39:19;7.70;99.90
64796;DHT22;51229;51.980;6.722;2022-11-15T09:45:28;7.90;99.90
64796;DHT22;51229;51.980;6.722;2022-11-15T09:51:31;8.00;99.90
64796;DHT22;51229;51.980;6.722;2022-11-15T09:56:32;8.00;99.90
64796;DHT22;51229;51.980;6.722;2022-11-15T09:59:13;8.00;99.90
64796;DHT22;51229;51.980;6.722;2022-11-15T10:02:10;7.90;99.90
64796;DHT22;51229;51.980;6.722;2022-11-15T10:04:39;8.20;99.90
64796;DHT22;51229;51.980;6.722;2022-11-15T10:07:27;8.60;99.90
64796;DHT22;51229;51.980;6.722;2022-11-15T10:10:02;8.60;99.90
64796;DHT22;51229;51.980;6.722;2022-11-15T10:12:30;8.60;99.90
64796;DHT22;51229;51.980;6.722;2022-11-15T10:15:08;8.60;99.90
64796;DHT22;51229;51.980;6.722;2022-11-15T10:18:06;9.20;99.90
64796;DHT22;51229;51.980;6.722;2022-11-15T10:20:50;10.30;99.90
64796;DHT22;51229;51.980;6.722;2022-11-15T10:23:20;11.40;99.90
64796;DHT22;51229;51.980;6.722;2022-11-15T10:25:47;12.20;99.90
64796;DHT22;51229;51.980;6.722;2022-11-15T10:28:30;12.10;99.90
64796;DHT22;51229;51.980;6.722;2022-11-15T10:30:58;12.60;99.90
64796;DHT22;51229;51.980;6.722;2022-11-15T10:33:40;12.30;99.90
64796;DHT22;51229;51.980;6.722;2022-11-15T10:38:55;12.50;99.90
64796;DHT22;51229;51.980;6.722;2022-11-15T10:46:37;12.00;99.90
64796;DHT22;51229;51.980;6.722;2022-11-15T10:49:23;12.70;99.90
64796;DHT22;51229;51.980;6.722;2022-11-15T10:51:54;12.90;99.90
64796;DHT22;51229;51.980;6.722;2022-11-15T10:54:25;12.10;99.90
64796;DHT22;51229;51.980;6.722;2022-11-15T10:56:55;12.80;99.90
64796;DHT22;51229;51.980;6.722;2022-11-15T10:59:33;13.00;99.90
64796;DHT22;51229;51.980;6.722;2022-11-15T11:02:01;13.80;99.90
64796;DHT22;51229;51.980;6.722;2022-11-15T11:04:26;13.70;99.90
64796;DHT22;51229;51.980;6.722;2022-11-15T11:06:58;13.80;99.90
64796;DHT22;51229;51.980;6.722;2022-11-15T11:09:34;13.80;99.90
64796;DHT22;51229;51.980;6.722;2022-11-15T11:12:01;13.30;99.90
64796;DHT22;51229;51.980;6.722;2022-11-15T11:14:35;12.50;99.90
64796;DHT22;51229;51.980;6.722;2022-11-15T11:25:50;13.80;99.90
64796;DHT22;51229;51.980;6.722;2022-11-15T11:28:44;13.60;99.90
64796;DHT22;51229;51.980;6.722;2022-11-15T11:42:04;15.60;99.90
64796;DHT22;51229;51.980;6.722;2022-11-15T11:47:21;16.40;99.90
64796;DHT22;51229;51.980;6.722;2022-11-15T11:49:53;14.30;99.90
64796;DHT22;51229;51.980;6.722;2022-11-15T11:52:31;14.30;99.90
64796;DHT22;51229;51.980;6.722;2022-11-15T11:55:10;14.30;99.90
64796;DHT22;51229;51.980;6.722;2022-11-15T12:00:35;13.20;99.90
64796;DHT22;51229;51.980;6.722;2022-11-15T12:03:14;12.80;99.90
64796;DHT22;51229;51.980;6.722;2022-11-15T12:05:48;12.90;99.90
64796;DHT22;51229;51.980;6.722;2022-11-15T12:08:29;13.70;99.90
64796;DHT22;51229;51.980;6.722;2022-11-15T12:13:30;13.70;99.90
64796;DHT22;51229;51.980;6.722;2022-11-15T12:16:06;14.30;99.90
64796;DHT22;51229;51.980;6.722;2022-11-15T12:18:34;14.40;99.90
64796;DHT22;51229;51.980;6.722;2022-11-15T12:21:07;14.40;99.90
64796;DHT22;51229;51.980;6.722;2022-11-15T12:23:47;13.40;99.90
64796;DHT22;51229;51.980;6.722;2022-11-15T12:26:20;12.70;99.90
64796;DHT22;51229;51.980;6.722;2022-11-15T12:28:57;12.20;99.90
64796;DHT22;51229;51.980;6.722;2022-11-15T12:31:26;12.00;99.90
64796;DHT22;51229;51.980;6.722;2022-11-15T12:33:56;11.90;99.90
64796;DHT22;51229;51.980;6.722;2022-11-15T12:39:06;12.20;99.90
64796;DHT22;51229;51.980;6.722;2022-11-15T12:41:36;12.00;99.90
64796;DHT22;51229;51.980;6.722;2022-11-15T12:44:03;11.40;99.90
64796;DHT22;51229;51.980;6.722;2022-11-15T13:02:41;11.30;99.90
64796;DHT22;51229;51.980;6.722;2022-11-15T13:22:44;11.00;99.90
64796;DHT22;51229;51.980;6.722;2022-11-15T13:27:51;10.80;99.90
64796;DHT22;51229;51.980;6.722;2022-11-15T13:30:25;10.80;99.90
64796;DHT22;51229;51.980;6.722;2022-11-15T13:32:52;10.70;99.90
64796;DHT22;51229;51.980;6.722;2022-11-15T13:35:24;10.80;99.90
64796;DHT22;51229;51.980;6.722;2022-11-15T13:37:50;10.80;99.90
64796;DHT22;51229;51.980;6.722;2022-11-15T13:40:28;10.70;99.90
64796;DHT22;51229;51.980;6.722;2022-11-15T13:42:57;10.90;99.90
64796;DHT22;51229;51.980;6.722;2022-11-15T13:45:23;10.80;99.90
64796;DHT22;51229;51.980;6.722;2022-11-15T13:47:57;10.80;99.90
64796;DHT22;51229;51.980;6.722;2022-11-15T13:50:28;10.50;99.90
64796;DHT22;51229;51.980;6.722;2022-11-15T13:53:00;10.60;99.90
64796;DHT22;51229;51.980;6.722;2022-11-15T13:55:27;10.60;99.90
64796;DHT22;51229;51.980;6.722;2022-11-15T13:57:59;10.40;99.90
64796;DHT22;51229;51.980;6.722;2022-11-15T14:00:43;10.70;99.90
64796;DHT22;51229;51.980;6.722;2022-11-15T14:03:22;10.60;99.90
64796;DHT22;51229;51.980;6.722;2022-11-15T14:08:34;10.60;99.90
64796;DHT22;51229;51.980;6.722;2022-11-15T14:11:14;10.60;99.90
64796;DHT22;51229;51.980;6.722;2022-11-15T14:13:41;10.40;99.90
64796;DHT22;51229;51.980;6.722;2022-11-15T14:16:15;10.30;99.90
64796;DHT22;51229;51.980;6.722;2022-11-15T14:18:45;10.10;99.90
64796;DHT22;51229;51.980;6.722;2022-11-15T14:21:10;10.20;99.90
64796;DHT22;51229;51.980;6.722;2022-11-15T14:23:36;10.20;99.90
64796;DHT22;51229;51.980;6.722;2022-11-15T14:26:02;10.30;99.90
64796;DHT22;51229;51.980;6.722;2022-11-15T14:28:33;10.20;99.90
64796;DHT22;51229;51.980;6.722;2022-11-15T14:31:04;10.20;99.90
64796;DHT22;51229;51.980;6.722;2022-11-15T14:33:34;10.10;99.90
64796;DHT22;51229;51.980;6.722;2022-11-15T14:36:17;10.20;99.90
64796;DHT22;51229;51.980;6.722;2022-11-15T14:38:43;10.20;99.90
64796;DHT22;51229;51.980;6.722;2022-11-15T14:41:21;10.20;99.90
64796;DHT22;51229;51.980;6.722;2022-11-15T14:43:47;10.10;99.90
64796;DHT22;51229;51.980;6.722;2022-11-15T14:46:12;10.10;99.90
64796;DHT22;51229;51.980;6.722;2022-11-15T14:48:38;10.10;99.90
64796;DHT22;51229;51.980;6.722;2022-11-15T14:51:15;9.90;99.90
64796;DHT22;51229;51.980;6.722;2022-11-15T14:53:42;10.00;99.90
64796;DHT22;51229;51.980;6.722;2022-11-15T14:56:09;9.80;99.90
64796;DHT22;51229;51.980;6.722;2022-11-15T14:58:34;9.90;99.90
64796;DHT22;51229;51.980;6.722;2022-11-15T15:01:03;9.70;99.90
64796;DHT22;51229;51.980;6.722;2022-11-15T15:03:34;9.80;99.90
64796;DHT22;51229;51.980;6.722;2022-11-15T15:06:00;9.80;99.90
64796;DHT22;51229;51.980;6.722;2022-11-15T15:08:26;9.70;99.90
64796;DHT22;51229;51.980;6.722;2022-11-15T15:10:51;9.70;99.90
64796;DHT22;51229;51.980;6.722;2022-11-15T15:13:22;9.70;99.90
64796;DHT22;51229;51.980;6.722;2022-11-15T15:15:49;9.60;99.90
64796;DHT22;51229;51.980;6.722;2022-11-15T15:18:15;9.50;99.90
64796;DHT22;51229;51.980;6.722;2022-11-15T15:20:42;9.60;99.90
64796;DHT22;51229;51.980;6.722;2022-11-15T15:23:16;9.60;99.90
64796;DHT22;51229;51.980;6.722;2022-11-15T15:25:42;9.60;99.90
64796;DHT22;51229;51.980;6.722;2022-11-15T15:28:09;9.60;99.90
64796;DHT22;51229;51.980;6.722;2022-11-15T15:30:34;9.50;99.90
64796;DHT22;51229;51.980;6.722;2022-11-15T15:33:00;9.50;99.90
64796;DHT22;51229;51.980;6.722;2022-11-15T15:35:30;9.40;99.90
64796;DHT22;51229;51.980;6.722;2022-11-15T15:37:56;9.50;99.90
64796;DHT22;51229;51.980;6.722;2022-11-15T15:40:23;9.40;99.90
64796;DHT22;51229;51.980;6.722;2022-11-15T15:42:49;9.40;99.90
64796;DHT22;51229;51.980;6.722;2022-11-15T15:45:16;9.30;99.90
64796;DHT22;51229;51.980;6.722;2022-11-15T15:47:42;9.30;99.90
64796;DHT22;51229;51.980;6.722;2022-11-15T15:50:32;9.30;99.90
64796;DHT22;51229;51.980;6.722;2022-11-15T15:52:59;9.30;99.90
64796;DHT22;51229;51.980;6.722;2022-11-15T15:55:25;9.30;99.90
64796;DHT22;51229;51.980;6.722;2022-11-15T15:57:52;9.30;99.90
64796;DHT22;51229;51.980;6.722;2022-11-15T16:00:19;9.30;99.90
64796;DHT22;51229;51.980;6.722;2022-11-15T16:02:45;9.20;99.90
64796;DHT22;51229;51.980;6.722;2022-11-15T16:05:12;9.20;99.90
64796;DHT22;51229;51.980;6.722;2022-11-15T16:07:38;9.20;99.90
64796;DHT22;51229;51.980;6.722;2022-11-15T16:12:41;9.00;99.90
64796;DHT22;51229;51.980;6.722;2022-11-15T16:15:07;9.00;99.90
64796;DHT22;51229;51.980;6.722;2022-11-15T16:17:36;9.00;99.90
64796;DHT22;51229;51.980;6.722;2022-11-15T16:20:04;9.00;99.90
64796;DHT22;51229;51.980;6.722;2022-11-15T16:22:29;9.00;99.90
64796;DHT22;51229;51.980;6.722;2022-11-15T16:24:56;9.00;99.90
64796;DHT22;51229;51.980;6.722;2022-11-15T16:27:22;9.00;99.90
64796;DHT22;51229;51.980;6.722;2022-11-15T16:29:48;8.90;99.90
64796;DHT22;51229;51.980;6.722;2022-11-15T16:32:14;8.90;99.90
64796;DHT22;51229;51.980;6.722;2022-11-15T16:34:40;8.90;99.90
64796;DHT22;51229;51.980;6.722;2022-11-15T16:37:23;9.00;99.90
64796;DHT22;51229;51.980;6.722;2022-11-15T16:39:49;9.00;99.90
64796;DHT22;51229;51.980;6.722;2022-11-15T16:42:15;8.90;99.90
64796;DHT22;51229;51.980;6.722;2022-11-15T16:44:40;8.90;99.90
64796;DHT22;51229;51.980;6.722;2022-11-15T16:47:16;8.90;99.90
64796;DHT22;51229;51.980;6.722;2022-11-15T16:49:43;8.90;99.90
64796;DHT22;51229;51.980;6.722;2022-11-15T16:52:09;8.90;99.90
64796;DHT22;51229;51.980;6.722;2022-11-15T16:54:35;8.90;99.90
64796;DHT22;51229;51.980;6.722;2022-11-15T16:57:00;8.90;99.90
64796;DHT22;51229;51.980;6.722;2022-11-15T16:59:26;8.90;99.90
64796;DHT22;51229;51.980;6.722;2022-11-15T17:01:52;8.90;99.90
64796;DHT22;51229;51.980;6.722;2022-11-15T17:04:18;8.90;99.90
64796;DHT22;51229;51.980;6.722;2022-11-15T17:06:48;8.90;99.90
64796;DHT22;51229;51.980;6.722;2022-11-15T17:09:21;8.80;99.90
64796;DHT22;51229;51.980;6.722;2022-11-15T17:11:51;8.90;99.90
64796;DHT22;51229;51.980;6.722;2022-11-15T17:14:17;8.80;99.90
64796;DHT22;51229;51.980;6.722;2022-11-15T17:16:42;8.80;99.90
64796;DHT22;51229;51.980;6.722;2022-11-15T17:19:17;8.80;99.90
64796;DHT22;51229;51.980;6.722;2022-11-15T17:21:44;8.80;99.90
64796;DHT22;51229;51.980;6.722;2022-11-15T17:24:10;8.80;99.90
64796;DHT22;51229;51.980;6.722;2022-11-15T17:26:37;8.80;99.90
64796;DHT22;51229;51.980;6.722;2022-11-15T17:29:03;8.80;99.90
64796;DHT22;51229;51.980;6.722;2022-11-15T17:31:33;8.80;99.90
64796;DHT22;51229;51.980;6.722;2022-11-15T17:34:00;8.80;99.90
64796;DHT22;51229;51.980;6.722;2022-11-15T17:36:26;8.70;99.90
64796;DHT22;51229;51.980;6.722;2022-11-15T17:38:52;8.70;99.90
64796;DHT22;51229;51.980;6.722;2022-11-15T17:41:18;8.70;99.90
64796;DHT22;51229;51.980;6.722;2022-11-15T17:43:46;8.70;99.90
64796;DHT22;51229;51.980;6.722;2022-11-15T17:46:14;8.80;99.90
64796;DHT22;51229;51.980;6.722;2022-11-15T17:48:40;8.80;99.90
64796;DHT22;51229;51.980;6.722;2022-11-15T17:51:10;8.80;99.90
64796;DHT22;51229;51.980;6.722;2022-11-15T17:53:41;8.80;99.90
64796;DHT22;51229;51.980;6.722;2022-11-15T17:56:09;8.80;99.90
64796;DHT22;51229;51.980;6.722;2022-11-15T17:58:35;8.80;99.90
64796;DHT22;51229;51.980;6.722;2022-11-15T18:01:42;8.80;99.90
64796;DHT22;51229;51.980;6.722;2022-11-15T18:04:08;8.80;99.90
64796;DHT22;51229;51.980;6.722;2022-11-15T18:06:35;8.80;99.90
64796;DHT22;51229;51.980;6.722;2022-11-15T18:09:01;8.80;99.90
64796;DHT22;51229;51.980;6.722;2022-11-15T18:11:30;8.80;99.90
64796;DHT22;51229;51.980;6.722;2022-11-15T18:13:59;8.80;99.90
64796;DHT22;51229;51.980;6.722;2022-11-15T18:16:27;8.80;99.90
64796;DHT22;51229;51.980;6.722;2022-11-15T18:18:55;8.70;99.90
64796;DHT22;51229;51.980;6.722;2022-11-15T18:21:29;8.70;99.90
64796;DHT22;51229;51.980;6.722;2022-11-15T18:23:57;8.70;99.90
64796;DHT22;51229;51.980;6.722;2022-11-15T18:26:24;8.70;99.90
64796;DHT22;51229;51.980;6.722;2022-11-15T18:28:52;8.70;99.90
64796;DHT22;51229;51.980;6.722;2022-11-15T18:31:20;8.70;99.90
64796;DHT22;51229;51.980;6.722;2022-11-15T18:33:47;8.70;99.90
64796;DHT22;51229;51.980;6.722;2022-11-15T18:36:15;8.70;99.90
64796;DHT22;51229;51.980;6.722;2022-11-15T18:38:42;8.60;99.90
64796;DHT22;51229;51.980;6.722;2022-11-15T18:41:10;8.60;99.90
64796;DHT22;51229;51.980;6.722;2022-11-15T18:43:37;8.60;99.90
64796;DHT22;51229;51.980;6.722;2022-11-15T18:46:13;8.60;99.90
64796;DHT22;51229;51.980;6.722;2022-11-15T18:48:40;8.60;99.90